Time;durP1;ratioP1;P1;durP2;ratioP2;P2;SDS_P1;SDS_P2;PMS_P1;PMS_P2;Temp;Humidity;BMP_temperature;BMP_pressure;BME280_temperature;BME280_humidity;BME280_pressure;Samples;Min_cycle;Max_cycle;Signal;HPM_P1;HPM_P2
2021/09/11 00:01:05;;;;;;;13.23;9.55;;;;;;;;;;5083746;28;20195;-47
2021/09/11 00:03:32;;;;;;;9.73;8.63;;;;;;;;;;5075203;28;20170;-48
2021/09/11 00:05:58;;;;;;;9.70;8.70;;;;;;;;;;5082000;28;20180;-48
2021/09/11 00:08:24;;;;;;;9.82;8.82;;;;;;;;;;5094569;28;20177;-48
2021/09/11 00:10:50;;;;;;;8.95;8.05;;;;;;;;;;5094563;28;20190;-48
2021/09/11 00:13:16;;;;;;;8.57;7.68;;;;;;;;;;5095179;28;20192;-48
2021/09/11 00:15:42;;;;;;;9.02;7.90;;;;;;;;;;5095326;28;20243;-48
2021/09/11 00:18:08;;;;;;;11.38;8.38;;;;;;;;;;5094712;28;20197;-48
2021/09/11 00:20:34;;;;;;;8.45;7.53;;;;;;;;;;5082196;28;20430;-48
2021/09/11 00:23:00;;;;;;;9.32;8.32;;;;;;;;;;5090014;28;20263;-48
2021/09/11 00:25:27;;;;;;;9.05;8.00;;;;;;;;;;5074560;28;20167;-49
2021/09/11 00:27:53;;;;;;;8.77;7.88;;;;;;;;;;5073793;28;20231;-47
2021/09/11 00:30:19;;;;;;;8.48;7.68;;;;;;;;;;5084881;28;20455;-49
2021/09/11 00:32:45;;;;;;;8.10;7.28;;;;;;;;;;5095148;28;20170;-48
2021/09/11 00:35:12;;;;;;;8.00;7.20;;;;;;;;;;5083716;28;20236;-48
2021/09/11 00:37:38;;;;;;;8.35;7.15;;;;;;;;;;5080474;28;20581;-49
2021/09/11 00:40:04;;;;;;;8.93;7.07;;;;;;;;;;5090901;28;20242;-48
2021/09/11 00:42:30;;;;;;;8.40;6.85;;;;;;;;;;5094543;28;20228;-48
2021/09/11 00:44:56;;;;;;;8.23;7.22;;;;;;;;;;5086029;28;20589;-48
2021/09/11 00:47:22;;;;;;;8.43;7.63;;;;;;;;;;5074130;28;20171;-48
2021/09/11 00:49:48;;;;;;;8.93;7.20;;;;;;;;;;5076224;28;20175;-48
2021/09/11 00:52:14;;;;;;;8.57;7.13;;;;;;;;;;5094902;28;20173;-48
2021/09/11 00:54:41;;;;;;;8.13;6.75;;;;;;;;;;5088024;28;20167;-48
2021/09/11 00:57:07;;;;;;;8.18;7.28;;;;;;;;;;5076614;28;20480;-48
2021/09/11 00:59:33;;;;;;;7.97;7.18;;;;;;;;;;5094047;28;20262;-48
2021/09/11 01:01:59;;;;;;;7.97;7.15;;;;;;;;;;5076814;28;20289;-48
2021/09/11 01:04:27;;;;;;;8.00;7.20;;;;;;;;;;5074765;28;20189;-48
2021/09/11 01:06:53;;;;;;;7.90;7.10;;;;;;;;;;5074097;28;20223;-49
2021/09/11 01:09:20;;;;;;;7.80;7.00;;;;;;;;;;5073883;28;20252;-49
2021/09/11 01:11:46;;;;;;;9.02;6.70;;;;;;;;;;5089509;28;20185;-48
2021/09/11 01:14:12;;;;;;;10.40;7.00;;;;;;;;;;5094159;28;20185;-48
2021/09/11 01:16:38;;;;;;;7.43;6.65;;;;;;;;;;5077673;28;20461;-48
2021/09/11 01:19:04;;;;;;;9.38;6.95;;;;;;;;;;5083641;28;20209;-48
2021/09/11 01:21:30;;;;;;;8.20;6.65;;;;;;;;;;5093654;28;20223;-48
2021/09/11 01:23:56;;;;;;;7.40;6.70;;;;;;;;;;5091215;28;20525;-48
2021/09/11 01:26:22;;;;;;;7.63;6.78;;;;;;;;;;5093572;28;20185;-48
2021/09/11 01:28:48;;;;;;;8.65;7.35;;;;;;;;;;5093848;28;20534;-48
2021/09/11 01:31:14;;;;;;;9.60;7.47;;;;;;;;;;5057546;28;20186;-48
2021/09/11 01:33:40;;;;;;;7.68;6.93;;;;;;;;;;5076691;28;20241;-48
2021/09/11 01:36:06;;;;;;;7.55;6.72;;;;;;;;;;5075475;28;20309;-48
2021/09/11 01:38:32;;;;;;;7.68;6.82;;;;;;;;;;5088668;28;20287;-49
2021/09/11 01:40:58;;;;;;;9.07;7.00;;;;;;;;;;5093770;28;20778;-47
2021/09/11 01:43:32;;;;;;;7.50;6.80;;;;;;;;;;5077744;28;20198;-47
2021/09/11 01:45:58;;;;;;;8.82;7.50;;;;;;;;;;5077583;28;20253;-47
2021/09/11 01:48:24;;;;;;;10.45;7.25;;;;;;;;;;5076925;28;20181;-47
2021/09/11 01:50:50;;;;;;;7.72;6.93;;;;;;;;;;5092664;28;20173;-48
2021/09/11 01:53:16;;;;;;;9.98;7.45;;;;;;;;;;5097513;28;20792;-48
2021/09/11 01:55:42;;;;;;;11.05;7.43;;;;;;;;;;5080893;28;20174;-47
2021/09/11 01:58:08;;;;;;;7.07;6.15;;;;;;;;;;5093540;28;20215;-48
2021/09/11 02:00:34;;;;;;;8.25;7.00;;;;;;;;;;5095736;28;20581;-48
2021/09/11 02:03:00;;;;;;;8.40;7.20;;;;;;;;;;5095929;28;20185;-48
2021/09/11 02:05:26;;;;;;;8.88;6.85;;;;;;;;;;5079990;28;20196;-48
2021/09/11 02:07:52;;;;;;;8.45;6.90;;;;;;;;;;5096618;28;20220;-48
2021/09/11 02:10:18;;;;;;;6.95;6.32;;;;;;;;;;5090050;28;20186;-48
2021/09/11 02:12:45;;;;;;;7.70;7.00;;;;;;;;;;5077119;28;20193;-48
2021/09/11 02:15:11;;;;;;;6.82;6.15;;;;;;;;;;5077038;28;20194;-48
2021/09/11 02:17:40;;;;;;;6.60;5.93;;;;;;;;;;5080209;28;20568;-48
2021/09/11 02:20:07;;;;;;;8.85;6.93;;;;;;;;;;5092809;28;20252;-48
2021/09/11 02:22:33;;;;;;;6.90;6.15;;;;;;;;;;5090335;28;20211;-48
2021/09/11 02:24:59;;;;;;;8.32;6.80;;;;;;;;;;5076853;28;20383;-48
2021/09/11 02:27:25;;;;;;;7.70;6.70;;;;;;;;;;5089487;28;20188;-48
2021/09/11 02:29:51;;;;;;;7.80;6.47;;;;;;;;;;5089921;28;20179;-48
2021/09/11 02:32:17;;;;;;;7.13;6.43;;;;;;;;;;5097101;28;20162;-48
2021/09/11 02:34:43;;;;;;;6.72;6.03;;;;;;;;;;5085846;28;20276;-48
2021/09/11 02:37:11;;;;;;;7.10;6.25;;;;;;;;;;5094217;28;20189;-48
2021/09/11 02:39:37;;;;;;;6.53;5.88;;;;;;;;;;5095562;28;20255;-48
2021/09/11 02:42:03;;;;;;;8.90;6.70;;;;;;;;;;5095801;28;20557;-48
2021/09/11 02:44:29;;;;;;;7.40;6.40;;;;;;;;;;5096533;28;20202;-48
2021/09/11 02:46:55;;;;;;;6.97;6.28;;;;;;;;;;5096340;28;20201;-48
2021/09/11 02:49:21;;;;;;;7.47;6.05;;;;;;;;;;5089683;28;20181;-48
2021/09/11 02:51:47;;;;;;;7.57;6.40;;;;;;;;;;5095920;28;20541;-48
2021/09/11 02:54:13;;;;;;;7.13;6.10;;;;;;;;;;5096025;28;20228;-48
2021/09/11 02:56:39;;;;;;;11.05;6.45;;;;;;;;;;5096587;28;20205;-48
2021/09/11 02:59:05;;;;;;;7.07;6.03;;;;;;;;;;5095569;28;20201;-48
2021/09/11 03:01:31;;;;;;;7.25;6.13;;;;;;;;;;5087252;28;20276;-48
2021/09/11 03:03:57;;;;;;;7.45;6.63;;;;;;;;;;5095516;28;20184;-48
2021/09/11 03:06:23;;;;;;;6.80;5.90;;;;;;;;;;5096309;28;20212;-48
2021/09/11 03:08:49;;;;;;;6.95;6.25;;;;;;;;;;5095660;28;20571;-48
2021/09/11 03:11:15;;;;;;;7.20;6.32;;;;;;;;;;5094806;28;20190;-48
2021/09/11 03:13:42;;;;;;;8.75;6.35;;;;;;;;;;5090525;28;20212;-48
2021/09/11 03:16:09;;;;;;;7.50;5.80;;;;;;;;;;5087929;28;20170;-48
2021/09/11 03:18:35;;;;;;;7.40;5.95;;;;;;;;;;5095156;28;20273;-48
2021/09/11 03:21:01;;;;;;;7.40;6.50;;;;;;;;;;5085666;28;20186;-48
2021/09/11 03:23:27;;;;;;;7.57;6.40;;;;;;;;;;5077016;28;20174;-48
2021/09/11 03:25:53;;;;;;;6.78;6.15;;;;;;;;;;5076856;28;20233;-48
2021/09/11 03:28:19;;;;;;;6.60;5.90;;;;;;;;;;5075138;28;20432;-48
2021/09/11 03:30:45;;;;;;;9.75;6.05;;;;;;;;;;5089353;28;20186;-48
2021/09/11 03:33:11;;;;;;;6.50;5.75;;;;;;;;;;5095122;28;20189;-48
2021/09/11 03:35:37;;;;;;;7.15;6.00;;;;;;;;;;5095777;28;20223;-48
2021/09/11 03:38:03;;;;;;;10.13;7.10;;;;;;;;;;5094774;28;20209;-48
2021/09/11 03:40:29;;;;;;;7.15;6.45;;;;;;;;;;5093818;28;20182;-48
2021/09/11 03:42:55;;;;;;;6.97;6.25;;;;;;;;;;5087898;28;20190;-48
2021/09/11 03:45:21;;;;;;;7.65;6.35;;;;;;;;;;5079809;28;20450;-48
2021/09/11 03:47:47;;;;;;;6.55;5.80;;;;;;;;;;5094795;28;20177;-48
2021/09/11 03:50:13;;;;;;;6.95;6.25;;;;;;;;;;5094764;28;20182;-48
2021/09/11 03:52:40;;;;;;;6.95;6.32;;;;;;;;;;5095299;28;20188;-48
2021/09/11 03:55:06;;;;;;;7.95;5.90;;;;;;;;;;5094444;28;20471;-48
2021/09/11 03:57:32;;;;;;;6.32;5.72;;;;;;;;;;5094682;28;20203;-47
2021/09/11 03:59:58;;;;;;;8.10;6.57;;;;;;;;;;5084772;28;20182;-47
2021/09/11 04:02:25;;;;;;;7.80;6.03;;;;;;;;;;5094124;28;20254;-48
2021/09/11 04:04:51;;;;;;;6.22;5.63;;;;;;;;;;5095225;28;20208;-48
2021/09/11 04:07:17;;;;;;;6.55;5.95;;;;;;;;;;5094847;28;20525;-48
2021/09/11 04:09:43;;;;;;;9.13;6.10;;;;;;;;;;5094915;28;20230;-48
2021/09/11 04:12:09;;;;;;;7.05;6.38;;;;;;;;;;5076542;28;20221;-48
2021/09/11 04:14:34;;;;;;;6.68;6.07;;;;;;;;;;5089845;28;20204;-48
2021/09/11 04:17:00;;;;;;;6.90;5.93;;;;;;;;;;5094083;28;20564;-48
2021/09/11 04:19:26;;;;;;;6.20;5.60;;;;;;;;;;5094696;28;20209;-48
2021/09/11 04:21:52;;;;;;;6.75;5.32;;;;;;;;;;5094321;28;20268;-48
2021/09/11 04:24:18;;;;;;;5.85;5.35;;;;;;;;;;5093346;28;20568;-48
2021/09/11 04:26:44;;;;;;;7.20;6.07;;;;;;;;;;5094789;28;20261;-48
2021/09/11 04:29:10;;;;;;;6.82;5.97;;;;;;;;;;5076375;28;20528;-48
2021/09/11 04:31:36;;;;;;;5.97;5.47;;;;;;;;;;5094051;28;20182;-48
2021/09/11 04:34:02;;;;;;;6.88;5.57;;;;;;;;;;5093610;28;20544;-48
2021/09/11 04:36:28;;;;;;;7.28;6.25;;;;;;;;;;5074583;28;20313;-48
2021/09/11 04:38:54;;;;;;;6.30;5.70;;;;;;;;;;5090727;28;20870;-48
2021/09/11 04:41:20;;;;;;;6.97;5.93;;;;;;;;;;5092984;28;20178;-48
2021/09/11 04:43:46;;;;;;;6.03;5.43;;;;;;;;;;5090364;28;20289;-48
2021/09/11 04:46:12;;;;;;;6.35;5.75;;;;;;;;;;5091432;28;20177;-48
2021/09/11 04:48:38;;;;;;;7.07;5.90;;;;;;;;;;5085562;28;20491;-48
2021/09/11 04:51:04;;;;;;;6.65;6.05;;;;;;;;;;5082658;28;20178;-48
2021/09/11 04:53:30;;;;;;;7.88;6.47;;;;;;;;;;5094527;28;20432;-48
2021/09/11 04:55:56;;;;;;;7.68;6.38;;;;;;;;;;5086456;28;20182;-48
2021/09/11 04:58:22;;;;;;;7.20;6.50;;;;;;;;;;5093368;28;20190;-48
2021/09/11 05:00:48;;;;;;;7.13;6.43;;;;;;;;;;5079915;28;20502;-48
2021/09/11 05:03:14;;;;;;;7.93;7.03;;;;;;;;;;5086101;28;20561;-48
2021/09/11 05:05:40;;;;;;;8.95;7.57;;;;;;;;;;5074095;28;20182;-48
2021/09/11 05:08:06;;;;;;;8.43;7.07;;;;;;;;;;5073715;28;20581;-48
2021/09/11 05:10:32;;;;;;;8.38;7.10;;;;;;;;;;5085470;28;20177;-48
2021/09/11 05:12:58;;;;;;;7.35;6.65;;;;;;;;;;5094194;28;20594;-48
2021/09/11 05:15:26;;;;;;;10.02;7.38;;;;;;;;;;5084644;28;20213;-48
2021/09/11 05:17:52;;;;;;;8.07;7.28;;;;;;;;;;5097820;28;20217;-48
2021/09/11 05:20:18;;;;;;;8.27;7.47;;;;;;;;;;5086953;28;20214;-48
2021/09/11 05:22:44;;;;;;;7.88;7.15;;;;;;;;;;5098035;28;20181;-48
2021/09/11 05:25:11;;;;;;;7.82;7.03;;;;;;;;;;5098060;28;20561;-48
2021/09/11 05:27:39;;;;;;;7.50;6.75;;;;;;;;;;5097234;28;20200;-48
2021/09/11 05:30:05;;;;;;;7.32;6.63;;;;;;;;;;5097270;28;20174;-47
2021/09/11 05:32:31;;;;;;;8.90;7.53;;;;;;;;;;5078537;28;20196;-48
2021/09/11 05:34:57;;;;;;;7.47;6.65;;;;;;;;;;5077916;28;20174;-48
2021/09/11 05:37:23;;;;;;;8.48;7.47;;;;;;;;;;5084436;28;20192;-48
2021/09/11 05:39:49;;;;;;;8.68;7.78;;;;;;;;;;5078305;28;20177;-48
2021/09/11 05:42:17;;;;;;;7.47;6.78;;;;;;;;;;5080696;28;20194;-48
2021/09/11 05:44:43;;;;;;;8.05;7.25;;;;;;;;;;5094388;28;20180;-48
2021/09/11 05:47:09;;;;;;;9.13;7.85;;;;;;;;;;5097528;28;20406;-48
2021/09/11 05:49:36;;;;;;;8.25;7.45;;;;;;;;;;5089825;28;20300;-48
2021/09/11 05:52:03;;;;;;;8.43;7.57;;;;;;;;;;5090430;28;20703;-48
2021/09/11 05:54:29;;;;;;;9.88;8.07;;;;;;;;;;5097169;28;20182;-48
2021/09/11 05:56:55;;;;;;;8.07;7.38;;;;;;;;;;5097110;28;20188;-48
2021/09/11 05:59:21;;;;;;;8.38;7.57;;;;;;;;;;5096964;28;20263;-48
2021/09/11 06:01:47;;;;;;;10.25;7.68;;;;;;;;;;5086548;28;20202;-48
2021/09/11 06:04:13;;;;;;;8.32;7.47;;;;;;;;;;5077217;28;20198;-48
2021/09/11 06:06:39;;;;;;;8.50;7.68;;;;;;;;;;5095749;28;20545;-48
2021/09/11 06:09:05;;;;;;;9.18;7.63;;;;;;;;;;5095088;28;20383;-48
2021/09/11 06:11:30;;;;;;;7.93;7.10;;;;;;;;;;5088324;28;20187;-48
2021/09/11 06:13:56;;;;;;;9.57;7.28;;;;;;;;;;5086363;28;20178;-48
2021/09/11 06:16:22;;;;;;;7.95;7.20;;;;;;;;;;5097229;28;20173;-48
2021/09/11 06:18:48;;;;;;;8.48;7.47;;;;;;;;;;5096650;28;20201;-48
2021/09/11 06:21:14;;;;;;;8.90;7.30;;;;;;;;;;5091143;28;20181;-48
2021/09/11 06:23:40;;;;;;;9.73;7.65;;;;;;;;;;5076885;28;20206;-48
2021/09/11 06:26:06;;;;;;;10.68;8.35;;;;;;;;;;5076034;28;20524;-48
2021/09/11 06:28:32;;;;;;;7.85;7.05;;;;;;;;;;5076297;28;20636;-48
2021/09/11 06:30:58;;;;;;;8.10;7.30;;;;;;;;;;5080096;28;20665;-48
2021/09/11 06:33:24;;;;;;;7.38;6.63;;;;;;;;;;5097001;28;20235;-48
2021/09/11 06:35:50;;;;;;;8.48;7.10;;;;;;;;;;5096400;28;20307;-48
2021/09/11 06:38:17;;;;;;;8.73;7.72;;;;;;;;;;5095917;28;20209;-48
2021/09/11 06:40:43;;;;;;;8.55;7.65;;;;;;;;;;5094467;28;20544;-48
2021/09/11 06:43:09;;;;;;;8.45;7.60;;;;;;;;;;5092461;28;20205;-48
2021/09/11 06:45:35;;;;;;;9.48;8.43;;;;;;;;;;5095683;28;20236;-48
2021/09/11 06:48:01;;;;;;;9.25;7.90;;;;;;;;;;5095729;28;20190;-48
2021/09/11 06:50:27;;;;;;;8.43;7.53;;;;;;;;;;5083599;28;20186;-47
2021/09/11 06:52:53;;;;;;;8.73;7.82;;;;;;;;;;5094256;28;20185;-48
2021/09/11 06:55:19;;;;;;;8.38;7.57;;;;;;;;;;5095770;28;20181;-48
2021/09/11 06:57:45;;;;;;;8.52;7.70;;;;;;;;;;5095958;28;20205;-48
2021/09/11 07:00:11;;;;;;;9.90;7.88;;;;;;;;;;5096168;28;20243;-48
2021/09/11 07:02:38;;;;;;;8.38;7.57;;;;;;;;;;5095702;28;20201;-48
2021/09/11 07:05:04;;;;;;;9.25;8.38;;;;;;;;;;5093807;28;20178;-48
2021/09/11 07:07:31;;;;;;;8.63;7.75;;;;;;;;;;5093939;28;20557;-48
2021/09/11 07:09:57;;;;;;;10.98;8.73;;;;;;;;;;5095784;28;20174;-48
2021/09/11 07:12:23;;;;;;;11.20;9.60;;;;;;;;;;5092518;28;20448;-48
2021/09/11 07:14:49;;;;;;;9.60;8.68;;;;;;;;;;5091082;28;20185;-48
2021/09/11 07:17:15;;;;;;;10.13;8.65;;;;;;;;;;5075546;28;20441;-48
2021/09/11 07:19:41;;;;;;;9.23;8.30;;;;;;;;;;5093621;28;20213;-48
2021/09/11 07:22:07;;;;;;;9.68;8.73;;;;;;;;;;5083767;28;20759;-48
2021/09/11 07:24:33;;;;;;;10.38;9.30;;;;;;;;;;5087524;28;20170;-48
2021/09/11 07:26:59;;;;;;;9.95;8.90;;;;;;;;;;5095557;28;20537;-48
2021/09/11 07:29:25;;;;;;;9.68;8.68;;;;;;;;;;5095064;28;20260;-48
2021/09/11 07:31:51;;;;;;;10.15;8.68;;;;;;;;;;5094863;28;20186;-48
2021/09/11 07:34:18;;;;;;;11.07;8.63;;;;;;;;;;5095825;28;20613;-48
2021/09/11 07:36:44;;;;;;;12.95;9.23;;;;;;;;;;5094526;28;20193;-48
2021/09/11 07:39:09;;;;;;;11.15;8.73;;;;;;;;;;5094047;28;20529;-48
2021/09/11 07:41:35;;;;;;;10.25;9.25;;;;;;;;;;5092459;28;20193;-48
2021/09/11 07:44:02;;;;;;;9.45;8.55;;;;;;;;;;5089307;28;20577;-48
2021/09/11 07:46:28;;;;;;;12.38;10.18;;;;;;;;;;5092562;28;20195;-48
2021/09/11 07:48:54;;;;;;;10.75;9.70;;;;;;;;;;5086899;28;20174;-48
2021/09/11 07:51:20;;;;;;;12.75;9.30;;;;;;;;;;5087714;28;20201;-48
2021/09/11 07:53:46;;;;;;;10.63;9.52;;;;;;;;;;5090491;28;20182;-48
2021/09/11 07:56:12;;;;;;;11.85;9.50;;;;;;;;;;5058493;28;20182;-48
2021/09/11 07:58:38;;;;;;;10.45;9.35;;;;;;;;;;5089904;28;20232;-48
2021/09/11 08:01:04;;;;;;;11.23;9.07;;;;;;;;;;5089517;28;20585;-48
2021/09/11 08:03:30;;;;;;;9.93;8.85;;;;;;;;;;5083733;28;20217;-48
2021/09/11 08:05:56;;;;;;;9.95;8.95;;;;;;;;;;5086258;28;20181;-48
2021/09/11 08:08:23;;;;;;;10.07;8.90;;;;;;;;;;5086100;28;20989;-48
2021/09/11 08:10:49;;;;;;;12.32;9.65;;;;;;;;;;5086367;28;20188;-48
2021/09/11 08:13:15;;;;;;;10.05;9.05;;;;;;;;;;5086008;28;20340;-47
2021/09/11 08:15:45;;;;;;;9.98;8.90;;;;;;;;;;5084003;28;20510;-48
2021/09/11 08:18:11;;;;;;;10.25;9.20;;;;;;;;;;5086226;28;20206;-48
2021/09/11 08:20:38;;;;;;;9.43;8.52;;;;;;;;;;5084968;28;20243;-48
2021/09/11 08:23:05;;;;;;;8.85;8.00;;;;;;;;;;5076126;28;20205;-48
2021/09/11 08:25:31;;;;;;;8.57;7.78;;;;;;;;;;5093241;28;20234;-48
2021/09/11 08:27:57;;;;;;;8.65;7.75;;;;;;;;;;5093889;28;20256;-48
2021/09/11 08:30:24;;;;;;;8.55;7.75;;;;;;;;;;5094626;28;20162;-48
2021/09/11 08:32:50;;;;;;;8.77;7.90;;;;;;;;;;5094855;28;20202;-47
2021/09/11 08:35:16;;;;;;;9.15;7.63;;;;;;;;;;5094355;28;20213;-48
2021/09/11 08:37:42;;;;;;;9.20;8.30;;;;;;;;;;5093821;28;20189;-48
2021/09/11 08:40:08;;;;;;;8.63;7.82;;;;;;;;;;5094483;28;20181;-48
2021/09/11 08:42:35;;;;;;;7.90;7.20;;;;;;;;;;5094694;28;20206;-48
2021/09/11 08:45:01;;;;;;;7.57;6.88;;;;;;;;;;5094482;28;20209;-48
2021/09/11 08:47:27;;;;;;;7.85;7.10;;;;;;;;;;5092705;28;20519;-48
2021/09/11 08:49:53;;;;;;;7.75;7.05;;;;;;;;;;5093540;28;20188;-47
2021/09/11 08:52:19;;;;;;;8.45;7.60;;;;;;;;;;5093561;28;20433;-48
2021/09/11 08:54:45;;;;;;;8.55;7.60;;;;;;;;;;5094162;28;20193;-48
2021/09/11 08:57:23;;;;;;;8.68;7.88;;;;;;;;;;5093935;28;20189;-48
2021/09/11 08:59:49;;;;;;;9.07;8.05;;;;;;;;;;5094301;28;20251;-48
2021/09/11 09:02:16;;;;;;;10.43;8.75;;;;;;;;;;5094054;28;20188;-48
2021/09/11 09:04:50;;;;;;;26.25;17.48;;;;;;;;;;5094619;28;20673;-48
2021/09/11 09:07:34;;;;;;;229.48;66.18;;;;;;;;;;5093187;28;20177;-48
2021/09/11 09:10:01;;;;;;;184.48;59.72;;;;;;;;;;5077123;28;20182;-48
2021/09/11 09:12:30;;;;;;;247.30;71.28;;;;;;;;;;5094164;28;20201;-48
2021/09/11 09:15:00;;;;;;;398.92;116.38;;;;;;;;;;5094173;28;20205;-48
2021/09/11 09:17:39;;;;;;;430.15;126.95;;;;;;;;;;5092584;28;20170;-48
2021/09/11 09:20:18;;;;;;;334.13;99.10;;;;;;;;;;5093846;28;20570;-48
2021/09/11 09:22:45;;;;;;;220.55;74.10;;;;;;;;;;5093488;28;20178;-48
2021/09/11 09:25:20;;;;;;;119.60;42.72;;;;;;;;;;5091325;28;20188;-48
2021/09/11 09:27:50;;;;;;;109.50;38.90;;;;;;;;;;5066421;28;20456;-48
2021/09/11 09:30:18;;;;;;;66.18;26.65;;;;;;;;;;5087891;28;20177;-48
2021/09/11 09:32:48;;;;;;;39.55;19.13;;;;;;;;;;5094020;28;20810;-48
2021/09/11 09:35:17;;;;;;;33.20;16.42;;;;;;;;;;5093945;28;20265;-47
2021/09/11 09:38:13;;;;;;;32.60;15.82;;;;;;;;;;5092104;28;20217;-48
2021/09/11 09:40:49;;;;;;;20.33;12.80;;;;;;;;;;5071088;28;20190;-48
2021/09/11 09:43:54;;;;;;;15.20;10.70;;;;;;;;;;5093991;28;20181;-48
2021/09/11 09:46:20;;;;;;;18.05;10.45;;;;;;;;;;5011913;28;20579;-48
2021/09/11 09:48:48;;;;;;;20.30;10.75;;;;;;;;;;5011526;28;20540;-48
2021/09/11 09:51:19;;;;;;;17.52;10.98;;;;;;;;;;5051891;28;20488;-48
2021/09/11 09:53:45;;;;;;;13.70;10.32;;;;;;;;;;5092605;28;20386;-48
2021/09/11 09:56:12;;;;;;;13.07;9.50;;;;;;;;;;5092854;28;20178;-48
2021/09/11 09:58:39;;;;;;;11.20;9.23;;;;;;;;;;5092973;28;20280;-48
2021/09/11 10:01:05;;;;;;;9.95;8.75;;;;;;;;;;5085424;28;20181;-47
2021/09/11 10:03:32;;;;;;;9.50;8.60;;;;;;;;;;5097793;28;20169;-48
2021/09/11 10:06:04;;;;;;;10.13;8.00;;;;;;;;;;5097532;28;20498;-47
2021/09/11 10:08:31;;;;;;;9.40;8.50;;;;;;;;;;5097079;28;20178;-48
2021/09/11 10:10:57;;;;;;;7.80;7.10;;;;;;;;;;5097017;28;20181;-48
2021/09/11 10:13:24;;;;;;;8.25;7.43;;;;;;;;;;5097165;28;20188;-48
2021/09/11 10:15:50;;;;;;;8.45;7.65;;;;;;;;;;5097258;28;20174;-48
2021/09/11 10:18:32;;;;;;;8.07;7.28;;;;;;;;;;5096181;28;20531;-48
2021/09/11 10:21:17;;;;;;;7.95;7.25;;;;;;;;;;5097291;28;20200;-48
2021/09/11 10:23:58;;;;;;;7.88;7.07;;;;;;;;;;5096260;28;20185;-48
2021/09/11 10:26:43;;;;;;;7.75;7.05;;;;;;;;;;5096657;28;20177;-48
2021/09/11 10:29:27;;;;;;;7.80;6.65;;;;;;;;;;5096173;28;20177;-48
2021/09/11 10:31:56;;;;;;;9.93;7.70;;;;;;;;;;5096806;28;20174;-48
2021/09/11 10:34:44;;;;;;;8.30;6.75;;;;;;;;;;5097246;28;20416;-48
2021/09/11 10:37:10;;;;;;;15.93;8.95;;;;;;;;;;5096113;28;20747;-48
2021/09/11 10:39:36;;;;;;;14.25;9.48;;;;;;;;;;5094340;28;20519;-48
2021/09/11 10:42:06;;;;;;;12.57;9.18;;;;;;;;;;5088795;28;20212;-48
2021/09/11 10:44:32;;;;;;;11.05;7.75;;;;;;;;;;5089322;28;20188;-48
2021/09/11 10:46:59;;;;;;;8.63;6.97;;;;;;;;;;5089976;28;20189;-47
2021/09/11 10:49:32;;;;;;;7.18;6.00;;;;;;;;;;5091773;28;20853;-48
2021/09/11 10:52:02;;;;;;;11.25;6.80;;;;;;;;;;5092036;28;20190;-48
2021/09/11 10:54:33;;;;;;;10.90;6.03;;;;;;;;;;5095003;28;20182;-48
2021/09/11 10:56:59;;;;;;;7.10;5.78;;;;;;;;;;5091361;28;20221;-48
2021/09/11 10:59:26;;;;;;;7.63;5.97;;;;;;;;;;5084245;28;20216;-48
2021/09/11 11:01:59;;;;;;;6.10;5.35;;;;;;;;;;5090395;28;20500;-48
2021/09/11 11:04:29;;;;;;;4.40;3.97;;;;;;;;;;5094976;28;20180;-48
2021/09/11 11:06:56;;;;;;;5.07;4.68;;;;;;;;;;5089397;28;20182;-48
2021/09/11 11:09:23;;;;;;;4.97;4.57;;;;;;;;;;5084678;28;20178;-48
2021/09/11 11:11:49;;;;;;;4.70;4.30;;;;;;;;;;5094735;28;20238;-48
2021/09/11 11:14:16;;;;;;;4.18;3.80;;;;;;;;;;5085464;28;20462;-48
2021/09/11 11:16:45;;;;;;;4.32;4.00;;;;;;;;;;5091746;28;20193;-48
2021/09/11 11:19:11;;;;;;;4.25;3.85;;;;;;;;;;5095505;28;20194;-48
2021/09/11 11:21:37;;;;;;;3.90;3.45;;;;;;;;;;5095639;28;20201;-48
2021/09/11 11:24:04;;;;;;;3.60;3.30;;;;;;;;;;5094210;28;20174;-49
2021/09/11 11:26:30;;;;;;;3.67;3.38;;;;;;;;;;5075723;28;20205;-48
2021/09/11 11:28:56;;;;;;;4.20;3.67;;;;;;;;;;5075297;28;20492;-48
2021/09/11 11:31:22;;;;;;;3.30;3.05;;;;;;;;;;5075623;28;20174;-48
2021/09/11 11:33:48;;;;;;;3.08;2.88;;;;;;;;;;5081884;28;20230;-48
2021/09/11 11:36:14;;;;;;;3.17;2.97;;;;;;;;;;5095499;28;20182;-48
2021/09/11 11:38:40;;;;;;;3.40;2.92;;;;;;;;;;5093566;28;20217;-48
2021/09/11 11:41:06;;;;;;;3.10;2.80;;;;;;;;;;5086308;28;20182;-48
2021/09/11 11:43:33;;;;;;;3.13;2.92;;;;;;;;;;5092953;28;20189;-48
2021/09/11 11:45:59;;;;;;;3.03;2.80;;;;;;;;;;5095374;28;20219;-47
2021/09/11 11:48:25;;;;;;;4.20;3.13;;;;;;;;;;5095094;28;20162;-48
2021/09/11 11:50:51;;;;;;;3.35;3.05;;;;;;;;;;5088530;28;20205;-48
2021/09/11 11:53:19;;;;;;;3.00;2.75;;;;;;;;;;5090485;28;20210;-48
2021/09/11 11:55:48;;;;;;;3.55;3.30;;;;;;;;;;5093710;28;20284;-48
2021/09/11 11:58:14;;;;;;;2.97;2.78;;;;;;;;;;5093999;28;20307;-48
2021/09/11 12:00:40;;;;;;;3.47;3.17;;;;;;;;;;5091699;28;20270;-48
2021/09/11 12:03:06;;;;;;;3.42;3.05;;;;;;;;;;5091177;28;20189;-48
2021/09/11 12:05:32;;;;;;;3.40;3.10;;;;;;;;;;5082309;28;20179;-48
2021/09/11 12:08:02;;;;;;;3.95;3.22;;;;;;;;;;5094144;28;20185;-48
2021/09/11 12:10:29;;;;;;;2.85;2.65;;;;;;;;;;5091570;28;20193;-48
2021/09/11 12:12:56;;;;;;;3.80;3.42;;;;;;;;;;5093148;28;20181;-47
2021/09/11 12:15:23;;;;;;;3.25;2.95;;;;;;;;;;5077481;28;20174;-48
2021/09/11 12:17:56;;;;;;;3.75;2.90;;;;;;;;;;5089015;28;20207;-48
2021/09/11 12:20:22;;;;;;;3.17;2.85;;;;;;;;;;5090202;28;20174;-48
2021/09/11 12:23:07;;;;;;;3.67;2.83;;;;;;;;;;5092240;28;20215;-48
2021/09/11 12:25:49;;;;;;;4.32;2.90;;;;;;;;;;5094109;28;20178;-48
2021/09/11 12:28:37;;;;;;;3.58;3.28;;;;;;;;;;5092895;28;20185;-48
2021/09/11 12:31:05;;;;;;;3.67;3.25;;;;;;;;;;5087407;28;20224;-48
2021/09/11 12:33:40;;;;;;;3.55;3.22;;;;;;;;;;5093758;28;20269;-48
2021/09/11 12:36:19;;;;;;;2.90;2.70;;;;;;;;;;5088215;28;20638;-48
2021/09/11 12:38:45;;;;;;;3.35;3.05;;;;;;;;;;5084186;28;20210;-48
2021/09/11 12:41:11;;;;;;;3.40;3.10;;;;;;;;;;5084653;28;20661;-48
2021/09/11 12:43:37;;;;;;;2.92;2.72;;;;;;;;;;5077343;28;20224;-48
2021/09/11 12:46:03;;;;;;;3.10;2.90;;;;;;;;;;5074744;28;20182;-48
2021/09/11 12:48:29;;;;;;;3.63;3.33;;;;;;;;;;5081323;28;20174;-48
2021/09/11 12:50:55;;;;;;;3.50;3.20;;;;;;;;;;5085958;28;20207;-48
2021/09/11 12:53:21;;;;;;;3.67;3.35;;;;;;;;;;5073253;28;20231;-48
2021/09/11 12:55:47;;;;;;;3.58;3.28;;;;;;;;;;5087868;28;20190;-48
2021/09/11 12:58:13;;;;;;;3.85;3.55;;;;;;;;;;5093176;28;20194;-48
2021/09/11 13:00:39;;;;;;;3.63;2.70;;;;;;;;;;5082069;28;20431;-48
2021/09/11 13:03:05;;;;;;;3.30;3.00;;;;;;;;;;5093921;28;20166;-48
2021/09/11 13:05:31;;;;;;;3.33;3.03;;;;;;;;;;5093957;28;20569;-48
2021/09/11 13:07:57;;;;;;;4.78;3.10;;;;;;;;;;5093860;28;20162;-48
2021/09/11 13:10:23;;;;;;;3.55;3.25;;;;;;;;;;5081584;28;20310;-48
2021/09/11 13:12:49;;;;;;;3.67;2.85;;;;;;;;;;5093903;28;20452;-48
2021/09/11 13:15:16;;;;;;;2.83;2.63;;;;;;;;;;5094199;28;20287;-48
2021/09/11 13:17:42;;;;;;;2.95;2.70;;;;;;;;;;5093762;28;20201;-48
2021/09/11 13:20:08;;;;;;;3.45;3.15;;;;;;;;;;5094174;28;20457;-48
2021/09/11 13:22:34;;;;;;;3.47;2.60;;;;;;;;;;5075595;28;20182;-48
2021/09/11 13:25:01;;;;;;;2.47;2.38;;;;;;;;;;5074173;28;20179;-47
2021/09/11 13:27:27;;;;;;;5.10;2.70;;;;;;;;;;5088360;28;20201;-48
2021/09/11 13:29:53;;;;;;;2.88;2.67;;;;;;;;;;5093027;28;20209;-48
2021/09/11 13:32:19;;;;;;;2.65;2.45;;;;;;;;;;5094214;28;20174;-48
2021/09/11 13:34:45;;;;;;;2.72;2.53;;;;;;;;;;5089407;28;20452;-48
2021/09/11 13:37:12;;;;;;;2.50;2.30;;;;;;;;;;5078277;28;20209;-48
2021/09/11 13:39:38;;;;;;;2.53;2.33;;;;;;;;;;5090344;28;20205;-48
2021/09/11 13:42:04;;;;;;;2.10;2.00;;;;;;;;;;5096427;28;20544;-48
2021/09/11 13:44:32;;;;;;;2.72;2.20;;;;;;;;;;5098068;28;20189;-48
2021/09/11 13:46:59;;;;;;;2.20;2.00;;;;;;;;;;5097169;28;20182;-48
2021/09/11 13:49:25;;;;;;;2.25;2.05;;;;;;;;;;5092474;28;20239;-48
2021/09/11 13:51:51;;;;;;;2.38;2.22;;;;;;;;;;5077340;28;20531;-48
2021/09/11 13:54:16;;;;;;;2.20;2.00;;;;;;;;;;5080593;28;20184;-49
2021/09/11 13:56:42;;;;;;;2.03;1.92;;;;;;;;;;5097859;28;20166;-48
2021/09/11 13:59:08;;;;;;;2.20;2.10;;;;;;;;;;5095323;28;20232;-48
2021/09/11 14:01:34;;;;;;;2.50;2.30;;;;;;;;;;5077254;28;20163;-49
2021/09/11 14:04:00;;;;;;;2.40;2.20;;;;;;;;;;5096104;28;20208;-48
2021/09/11 14:06:26;;;;;;;2.22;2.03;;;;;;;;;;5097238;28;20211;-48
2021/09/11 14:08:52;;;;;;;1.80;1.70;;;;;;;;;;5096109;28;20177;-49
2021/09/11 14:11:18;;;;;;;2.90;2.20;;;;;;;;;;5096426;28;20635;-48
2021/09/11 14:13:44;;;;;;;2.50;2.30;;;;;;;;;;5095323;28;20185;-49
2021/09/11 14:16:11;;;;;;;2.03;1.92;;;;;;;;;;5084022;28;20186;-48
2021/09/11 14:18:37;;;;;;;2.05;1.95;;;;;;;;;;5080271;28;20200;-48
2021/09/11 14:21:03;;;;;;;2.25;2.10;;;;;;;;;;5080008;28;20178;-48
2021/09/11 14:23:30;;;;;;;3.45;2.38;;;;;;;;;;5085293;28;20606;-48
2021/09/11 14:25:56;;;;;;;2.47;2.28;;;;;;;;;;5084255;28;20182;-48
2021/09/11 14:28:23;;;;;;;2.47;2.22;;;;;;;;;;5096765;28;20555;-48
2021/09/11 14:30:50;;;;;;;2.88;2.60;;;;;;;;;;5089497;28;20193;-48
2021/09/11 14:33:16;;;;;;;2.72;2.53;;;;;;;;;;5076932;28;20167;-48
2021/09/11 14:35:42;;;;;;;3.28;2.53;;;;;;;;;;5091715;28;20279;-48
2021/09/11 14:38:08;;;;;;;2.40;2.20;;;;;;;;;;5095786;28;20213;-48
2021/09/11 14:40:35;;;;;;;2.60;2.40;;;;;;;;;;5086659;28;20174;-49